Impacts METAR Board INFO
IDs:

KSFO - San Francisco Intl, CA, US

Updated at: 1929 UTC 17 Dec 2017
Potential Impact None Slight Moderate High
Time17/07Z 17/08Z 17/09Z 17/10Z 17/11Z 17/12Z 17/13Z 17/14Z 17/15Z 17/16Z 17/17Z 17/18Z 17/19Z
VIS10 10 10 10 10 10 10 10 10 10 10 10 10
CIG-- -- -- -- -- -- -- -- -- -- -- -- --
CoverFEWSCTCLRCLRCLRCLRFEWFEWFEWFEWFEWFEWFEW
FltCatVFRVFRVFRVFRVFRVFRVFRVFRVFRVFRVFRVFRVFR
WX--------------------------
WDir290360360350102010608060605060
WSpd7 12 13 9 9 10 9 5 7 11 9 12 11
WGst-- -- -- -- -- -- -- -- -- -- -- -- --
Raw hourly METARs
KSFO 170656Z 29007KT 10SM FEW180 14/M06 A2998 RMK AO2 SLP152 T01391061
KSFO 170756Z 36012KT 10SM SCT200 14/M01 A2997 RMK AO2 SLP150 T01391011 401780094
KSFO 170856Z 36013KT 10SM CLR 13/01 A2999 RMK AO2 SLP155 T01330011 53006
KSFO 170956Z 35009KT 10SM CLR 13/M01 A3000 RMK AO2 SLP158 T01331006
KSFO 171056Z 01009KT 10SM CLR 13/01 A3000 RMK AO2 SLP158 T01330006
KSFO 171156Z 02010KT 10SM CLR 13/M02 A3000 RMK AO2 SLP158 T01281022 10150 20128 50003
KSFO 171256Z 01009KT 10SM FEW200 13/M04 A3001 RMK AO2 SLP161 T01331039
KSFO 171356Z 06005KT 10SM FEW200 12/03 A3001 RMK AO2 SLP163 T01170028
KSFO 171456Z 08007KT 10SM FEW180 12/01 A3002 RMK AO2 SLP165 T01220011 51007
KSFO 171556Z 06011KT 10SM FEW180 12/M02 A3004 RMK AO2 SLP171 T01221017
KSFO 171656Z 06009KT 10SM FEW180 13/M02 A3004 RMK AO2 SLP173 T01281017
KSFO 171756Z 05012KT 10SM FEW170 14/M01 A3006 RMK AO2 SLP178 T01391006 10139 20100 51013
KSFO 171856Z 06011KT 10SM FEW180 14/00 A3005 RMK AO2 SLP175 T01440000